Terminal Aerodrome Forecast
Issued by NWS Wilmington, OH

Current Version | Previous Version | Graphics & Text | Print | Product List | Glossary On
Versions: 1 2 3 4 5 6 7 8 9 10 11 12 13 14 15 16 17 18 19 20 21 22 23 24 25 26 27 28 29
336
FTUS41 KILN 110540
TAFCVG
TAF
KCVG 110540Z 1106/1212 27007KT P6SM FEW250
     FM111200 20009KT P6SM SCT080 BKN150
     FM120600 27012G20KT P6SM SCT015 BKN025
     FM120900 30015G25KT 3SM -SHSN OVC015=

USA.gov is the U.S. government's official web portal to all federal, state and local government web resources and services.